EmailTwitter


Observations de surface / Québec / CYSC

Régions: Québec | Canada | États-Unis | Europe | France | UK | Ailleurs
Station
Affichage
Infos & localisation pour CYSC | Aide pour décoder les METARs

Observations prises le 2017-08-21 à 08H25 UTC à SHERBROOKE, QB (CYSC)

Etat du ciel: dégagé.

Obstacle(s) à la visibilité: brume.

Température: 13.0 Celsius

Point de rosée: 13.0 Celsius

Humidité relative: 100%

Vents: Calme à 0 km/h ou 0 noeuds.

Pression au niveau moyen de la mer: 101.91 kilopascals.

Calage altimétrique: 101.90 kilopascals ou 30.09 pouces de mercure.

Visibilité horizontale: 6.00 milles terrestres ou 9.60 kilomètres.

Observation METAR:

CYSC 210825Z AUTO 00000KT 6SM BR CLR 13/13 A3009 RMK SLP191=